createdAt,value
2022-09-28T00:01:25.998Z,15.87
2022-09-28T00:03:59.802Z,15.73
2022-09-28T00:06:31.240Z,13.63
2022-09-28T00:08:59.378Z,14.30
2022-09-28T00:11:29.263Z,13.23
2022-09-28T00:14:03.612Z,11.67
2022-09-28T00:16:39.085Z,12.90
2022-09-28T00:19:09.412Z,12.70
2022-09-28T00:21:41.842Z,11.80
2022-09-28T00:24:15.833Z,11.17
2022-09-28T00:27:01.512Z,13.13
2022-09-28T00:29:38.393Z,11.90
2022-09-28T00:32:16.858Z,10.87
2022-09-28T00:34:49.321Z,11.10
2022-09-28T00:37:19.828Z,10.53
2022-09-28T00:39:49.347Z,10.03
2022-09-28T00:42:23.547Z,10.33
2022-09-28T00:44:57.581Z,11.07
2022-09-28T00:47:54.720Z,11.17
2022-09-28T00:50:36.256Z,11.70
2022-09-28T00:53:29.402Z,12.33
2022-09-28T00:56:17.493Z,11.37
2022-09-28T00:58:53.523Z,11.40
2022-09-28T01:01:23.216Z,11.53
2022-09-28T01:03:51.264Z,10.03
2022-09-28T01:06:27.663Z,11.10
2022-09-28T01:09:04.054Z,10.27
2022-09-28T01:11:38.507Z,9.90
2022-09-28T01:14:15.797Z,9.53
2022-09-28T01:17:12.292Z,10.53
2022-09-28T01:20:14.420Z,10.70
2022-09-28T01:23:40.500Z,10.80
2022-09-28T01:26:44.721Z,10.77
2022-09-28T01:30:09.420Z,11.40
2022-09-28T01:33:14.521Z,10.47
2022-09-28T01:35:55.349Z,12.70
2022-09-28T01:38:37.201Z,12.50
2022-09-28T01:41:08.502Z,12.60
2022-09-28T01:43:45.889Z,13.20
2022-09-28T01:46:34.049Z,12.57
2022-09-28T01:49:16.820Z,13.70
2022-09-28T01:52:04.999Z,13.37
2022-09-28T01:54:55.500Z,14.43
2022-09-28T01:57:48.779Z,13.67
2022-09-28T02:00:20.029Z,14.03
2022-09-28T02:03:36.860Z,14.20
2022-09-28T02:06:26.561Z,20.90
2022-09-28T02:09:10.767Z,18.57
2022-09-28T02:11:55.171Z,20.37
2022-09-28T02:14:26.528Z,19.37
2022-09-28T02:16:57.486Z,18.00
2022-09-28T02:19:31.309Z,21.07
2022-09-28T02:23:04.883Z,19.00
2022-09-28T02:25:56.031Z,20.87
2022-09-28T02:28:23.849Z,20.33
2022-09-28T02:30:52.141Z,19.67
2022-09-28T02:33:43.775Z,21.67
2022-09-28T02:36:12.273Z,21.70
2022-09-28T02:38:40.157Z,20.83
2022-09-28T02:41:53.704Z,20.00
2022-09-28T02:45:24.717Z,23.70
2022-09-28T02:48:43.928Z,19.90
2022-09-28T02:51:55.352Z,21.00
2022-09-28T02:55:17.990Z,19.80
2022-09-28T02:58:30.389Z,18.83
2022-09-28T03:01:57.400Z,19.90
2022-09-28T03:05:19.675Z,17.70
2022-09-28T03:08:30.241Z,17.80
2022-09-28T03:11:25.116Z,16.07
2022-09-28T03:13:54.411Z,16.27
2022-09-28T03:16:27.710Z,17.27
2022-09-28T03:18:55.551Z,17.43
2022-09-28T03:21:23.275Z,18.30
2022-09-28T03:23:50.922Z,18.83
2022-09-28T03:26:21.118Z,20.07
2022-09-28T03:28:48.741Z,20.00
2022-09-28T03:31:23.356Z,19.63
2022-09-28T03:33:53.065Z,18.97
2022-09-28T03:36:20.776Z,19.70
2022-09-28T03:38:48.660Z,21.07
2022-09-28T03:41:16.666Z,20.67
2022-09-28T03:43:44.591Z,20.00
2022-09-28T03:46:14.312Z,20.17
2022-09-28T03:48:46.983Z,20.37
2022-09-28T03:51:14.835Z,20.00
2022-09-28T03:53:42.458Z,21.07
2022-09-28T03:56:15.994Z,20.40
2022-09-28T03:58:43.648Z,19.93
2022-09-28T04:01:18.894Z,19.63
2022-09-28T04:03:55.171Z,22.80
2022-09-28T04:06:26.116Z,21.93
2022-09-28T04:08:54.336Z,22.73
2022-09-28T04:11:22.044Z,23.63
2022-09-28T04:13:50.811Z,27.17
2022-09-28T04:16:19.128Z,24.60
2022-09-28T04:19:06.736Z,27.27
2022-09-28T04:21:53.104Z,26.60
2022-09-28T04:24:21.485Z,25.33
2022-09-28T04:26:49.606Z,28.30
2022-09-28T04:29:19.400Z,27.93
2022-09-28T04:31:53.948Z,30.27
2022-09-28T04:34:29.806Z,29.80
2022-09-28T04:36:59.502Z,28.20
2022-09-28T04:39:27.381Z,30.77
2022-09-28T04:41:56.956Z,28.40
2022-09-28T04:44:24.693Z,30.77
2022-09-28T04:47:02.875Z,30.57
2022-09-28T04:49:35.407Z,31.53
2022-09-28T04:52:11.007Z,33.23
2022-09-28T04:54:41.403Z,32.70
2022-09-28T04:57:09.318Z,32.50
2022-09-28T04:59:38.281Z,34.00
2022-09-28T05:02:06.403Z,35.60
2022-09-28T05:05:12.664Z,34.27
2022-09-28T05:07:49.908Z,29.87
2022-09-28T05:10:19.111Z,31.20
2022-09-28T05:12:47.769Z,31.50
2022-09-28T05:15:16.143Z,32.00
2022-09-28T05:17:43.939Z,30.43
2022-09-28T05:20:25.656Z,29.53
2022-09-28T05:22:53.424Z,33.03
2022-09-28T05:25:21.508Z,31.90
2022-09-28T05:28:10.226Z,31.83
2022-09-28T05:30:49.140Z,31.80
2022-09-28T05:33:27.629Z,32.73
2022-09-28T05:36:05.378Z,31.23
2022-09-28T05:38:33.184Z,32.27
2022-09-28T05:41:06.252Z,29.90
2022-09-28T05:43:34.592Z,28.83
2022-09-28T05:46:07.187Z,28.20
2022-09-28T05:48:37.858Z,31.10
2022-09-28T05:51:05.874Z,29.67
2022-09-28T05:53:33.541Z,28.23
2022-09-28T05:56:02.605Z,27.50
2022-09-28T05:58:32.819Z,30.30
2022-09-28T06:01:01.059Z,28.43
2022-09-28T06:03:30.595Z,29.67
2022-09-28T06:06:02.689Z,31.07
2022-09-28T06:08:35.318Z,26.80
2022-09-28T06:11:27.933Z,27.13
2022-09-28T06:13:58.099Z,28.80
2022-09-28T06:16:29.258Z,29.97
2022-09-28T06:18:57.192Z,27.73
2022-09-28T06:21:43.411Z,30.03
2022-09-28T06:24:11.439Z,32.37
2022-09-28T06:26:39.273Z,29.60
2022-09-28T06:29:08.125Z,30.40
2022-09-28T06:31:37.456Z,29.90
2022-09-28T06:34:05.257Z,30.43
2022-09-28T06:36:33.284Z,31.43
2022-09-28T06:39:00.837Z,31.03
2022-09-28T06:41:29.297Z,34.40
2022-09-28T06:44:02.133Z,34.73
2022-09-28T06:46:48.696Z,32.77
2022-09-28T06:49:38.752Z,32.90
2022-09-28T06:52:26.541Z,33.70
2022-09-28T06:55:06.599Z,32.57
2022-09-28T06:57:43.432Z,34.23
2022-09-28T07:00:12.909Z,30.53
2022-09-28T07:02:40.826Z,33.73
2022-09-28T07:05:15.710Z,32.40
2022-09-28T07:08:06.282Z,28.40
2022-09-28T07:10:49.849Z,29.40
2022-09-28T07:13:50.978Z,29.87
2022-09-28T07:16:26.862Z,29.60
2022-09-28T07:18:57.940Z,28.83
2022-09-28T07:21:30.224Z,29.50
2022-09-28T07:24:02.286Z,29.47
2022-09-28T07:26:52.921Z,29.27
2022-09-28T07:29:34.221Z,29.57
2022-09-28T07:32:23.705Z,30.07
2022-09-28T07:35:16.733Z,28.83
2022-09-28T07:38:03.537Z,28.27
2022-09-28T07:40:54.218Z,26.80
2022-09-28T07:43:23.103Z,25.70
2022-09-28T07:45:55.003Z,24.03
2022-09-28T07:48:23.930Z,22.90
2022-09-28T07:51:10.649Z,23.83
2022-09-28T07:54:07.700Z,23.97
2022-09-28T07:57:01.049Z,21.50
2022-09-28T07:59:37.109Z,22.07
2022-09-28T08:02:23.557Z,20.80
2022-09-28T08:04:51.436Z,20.80
2022-09-28T08:07:23.657Z,20.90
2022-09-28T08:09:58.725Z,22.30
2022-09-28T08:12:29.215Z,22.20
2022-09-28T08:15:15.576Z,22.30
2022-09-28T08:18:11.202Z,20.20
2022-09-28T08:20:57.633Z,21.47
2022-09-28T08:23:26.203Z,18.80
2022-09-28T08:25:54.705Z,18.97
2022-09-28T08:28:25.589Z,18.27
2022-09-28T08:31:04.845Z,17.43
2022-09-28T08:33:32.529Z,18.60
2022-09-28T08:36:21.187Z,17.50
2022-09-28T08:38:55.605Z,16.77
2022-09-28T08:42:08.954Z,19.07
2022-09-28T08:44:58.779Z,18.40
2022-09-28T08:48:41.137Z,18.43
2022-09-28T08:52:12.153Z,15.90
2022-09-28T08:55:31.317Z,15.90
2022-09-28T08:58:24.103Z,15.93
2022-09-28T09:00:54.452Z,14.83
2022-09-28T09:03:42.137Z,15.50
2022-09-28T09:07:24.350Z,13.30
2022-09-28T09:10:53.309Z,12.10
2022-09-28T09:14:09.098Z,10.80
2022-09-28T09:17:19.817Z,10.80
2022-09-28T09:20:42.114Z,12.00
2022-09-28T09:23:56.105Z,11.53
2022-09-28T09:26:41.488Z,10.60
2022-09-28T09:29:39.350Z,8.90
2022-09-28T09:33:05.173Z,8.60
2022-09-28T09:36:48.702Z,9.60
2022-09-28T09:39:59.642Z,9.40
2022-09-28T09:44:13.407Z,8.33
2022-09-28T09:47:11.700Z,9.50
2022-09-28T09:50:29.999Z,9.17
2022-09-28T09:54:02.197Z,8.90
2022-09-28T09:56:57.749Z,11.00
2022-09-28T09:59:54.090Z,10.80
2022-09-28T10:02:37.076Z,10.77
2022-09-28T10:05:43.985Z,9.60
2022-09-28T10:08:24.401Z,10.17
2022-09-28T10:11:30.241Z,8.73
2022-09-28T10:13:59.981Z,8.97
2022-09-28T10:16:48.556Z,9.20
2022-09-28T10:19:37.605Z,9.30
2022-09-28T10:22:45.409Z,9.00
2022-09-28T10:25:20.519Z,9.10
2022-09-28T10:27:52.786Z,9.10
2022-09-28T10:30:26.038Z,7.90
2022-09-28T10:32:59.489Z,7.20
2022-09-28T10:35:43.664Z,7.90
2022-09-28T10:38:19.239Z,7.50
2022-09-28T10:41:10.558Z,7.60
2022-09-28T10:44:06.917Z,7.17
2022-09-28T10:47:10.468Z,6.30
2022-09-28T10:49:48.470Z,6.57
2022-09-28T10:52:45.354Z,7.20
2022-09-28T10:55:36.973Z,4.57
2022-09-28T10:58:42.251Z,4.43
2022-09-28T11:01:31.224Z,4.70
2022-09-28T11:04:10.707Z,5.37
2022-09-28T11:06:41.954Z,5.70
2022-09-28T11:09:41.447Z,5.60
2022-09-28T11:12:22.069Z,5.53
2022-09-28T11:15:06.320Z,5.60
2022-09-28T11:17:40.633Z,5.13
2022-09-28T11:20:27.749Z,4.43
2022-09-28T11:23:21.412Z,4.63
2022-09-28T11:26:08.944Z,4.67
2022-09-28T11:28:41.336Z,4.03
2022-09-28T11:31:16.726Z,3.97
2022-09-28T11:34:47.801Z,4.53
2022-09-28T11:38:07.951Z,3.13
2022-09-28T11:41:48.536Z,3.00
2022-09-28T11:44:44.925Z,2.77
2022-09-28T11:47:47.163Z,2.83
2022-09-28T11:50:55.868Z,2.80
2022-09-28T11:54:01.557Z,2.93
2022-09-28T11:56:51.016Z,2.77
2022-09-28T11:59:33.390Z,2.73
2022-09-28T12:02:42.915Z,2.60
2022-09-28T12:05:46.233Z,2.20
2022-09-28T12:08:30.256Z,2.40
2022-09-28T12:11:13.619Z,2.80
2022-09-28T12:14:06.947Z,3.60
2022-09-28T12:17:45.451Z,3.27
2022-09-28T12:20:47.530Z,4.00
2022-09-28T12:23:35.903Z,4.17
2022-09-28T12:27:04.463Z,4.00
2022-09-28T12:30:21.431Z,3.37
2022-09-28T12:33:13.250Z,3.10
2022-09-28T12:36:34.455Z,3.90
2022-09-28T12:40:02.459Z,4.23
2022-09-28T12:43:29.051Z,4.27
2022-09-28T12:46:33.662Z,4.13
2022-09-28T12:50:36.251Z,4.60
2022-09-28T12:54:17.875Z,4.67
2022-09-28T12:57:40.993Z,5.80
2022-09-28T13:00:25.315Z,4.53
2022-09-28T13:04:03.056Z,4.23
2022-09-28T13:07:05.397Z,4.17
2022-09-28T13:10:04.205Z,3.30
2022-09-28T13:13:06.350Z,3.67
2022-09-28T13:16:12.988Z,3.30
2022-09-28T13:19:29.737Z,3.10
2022-09-28T13:23:15.133Z,2.90
2022-09-28T13:26:14.537Z,3.60
2022-09-28T13:28:47.100Z,3.30
2022-09-28T13:31:33.186Z,3.10
2022-09-28T13:34:07.314Z,2.80
2022-09-28T13:36:38.137Z,2.70
2022-09-28T13:39:51.067Z,2.60
2022-09-28T13:42:45.858Z,2.60
2022-09-28T13:45:54.861Z,3.10
2022-09-28T13:49:05.243Z,2.90
2022-09-28T13:52:12.564Z,2.33
2022-09-28T13:55:12.562Z,2.60
2022-09-28T13:58:17.961Z,2.57
2022-09-28T14:01:07.887Z,2.00
2022-09-28T14:04:24.145Z,2.67
2022-09-28T14:07:08.660Z,2.60
2022-09-28T14:10:27.812Z,2.10
2022-09-28T14:12:55.562Z,2.47
2022-09-28T14:15:42.107Z,2.00
2022-09-28T14:18:34.372Z,2.43
2022-09-28T14:21:36.211Z,2.40
2022-09-28T14:25:04.330Z,2.00
2022-09-28T14:28:38.721Z,1.80
2022-09-28T14:31:30.449Z,1.80
2022-09-28T14:34:03.585Z,2.60
2022-09-28T14:37:07.845Z,2.20
2022-09-28T14:39:57.529Z,3.10
2022-09-28T14:42:26.571Z,4.03
2022-09-28T14:45:06.370Z,4.60
2022-09-28T14:47:45.024Z,5.10
2022-09-28T14:50:30.964Z,4.67
2022-09-28T14:53:38.993Z,5.07
2022-09-28T14:56:09.345Z,4.97
2022-09-28T14:58:38.413Z,5.57
2022-09-28T15:01:21.670Z,4.63
2022-09-28T15:04:07.064Z,5.77
2022-09-28T15:06:52.163Z,6.60
2022-09-28T15:09:34.059Z,5.73
2022-09-28T15:12:16.276Z,6.23
2022-09-28T15:15:08.593Z,6.03
2022-09-28T15:17:40.813Z,5.30
2022-09-28T15:20:33.077Z,5.40
2022-09-28T15:23:01.103Z,5.67
2022-09-28T15:25:32.898Z,5.50
2022-09-28T15:28:19.451Z,5.73
2022-09-28T15:30:47.031Z,4.93
2022-09-28T15:34:06.409Z,6.20
2022-09-28T15:36:46.578Z,6.00
2022-09-28T15:39:39.184Z,6.17
2022-09-28T15:42:07.425Z,6.40
2022-09-28T15:44:44.662Z,6.80
2022-09-28T15:47:29.117Z,5.73
2022-09-28T15:50:09.266Z,6.53
2022-09-28T15:53:02.202Z,5.20
2022-09-28T15:55:51.423Z,4.90
2022-09-28T15:58:24.422Z,4.70
2022-09-28T16:01:27.282Z,5.03
2022-09-28T16:03:55.203Z,5.87
2022-09-28T16:06:23.544Z,5.90
2022-09-28T16:08:51.232Z,6.30
2022-09-28T16:11:31.960Z,5.40
2022-09-28T16:14:24.488Z,6.13
2022-09-28T16:16:55.328Z,6.10
2022-09-28T16:19:39.383Z,5.73
2022-09-28T16:22:24.487Z,6.37
2022-09-28T16:25:03.012Z,6.13
2022-09-28T16:27:43.525Z,9.77
2022-09-28T16:30:27.431Z,5.23
2022-09-28T16:33:38.454Z,5.07
2022-09-28T16:36:17.230Z,4.50
2022-09-28T16:38:48.221Z,5.03
2022-09-28T16:41:23.163Z,3.50
2022-09-28T16:44:02.359Z,3.80
2022-09-28T16:46:39.164Z,4.33
2022-09-28T16:49:07.583Z,4.00
2022-09-28T16:51:35.722Z,4.73
2022-09-28T16:54:43.792Z,3.80
2022-09-28T16:57:16.406Z,2.93
2022-09-28T16:59:44.107Z,2.50
2022-09-28T17:05:15.992Z,2.33
2022-09-28T17:07:45.388Z,2.60
2022-09-28T17:10:55.788Z,3.80
2022-09-28T17:13:33.882Z,3.27
2022-09-28T17:16:12.965Z,3.07
2022-09-28T17:18:41.886Z,3.23
2022-09-28T17:21:20.682Z,4.30
2022-09-28T17:23:50.630Z,4.13
2022-09-28T17:26:33.730Z,3.17
2022-09-28T17:29:02.280Z,3.87
2022-09-28T17:31:30.909Z,3.73
2022-09-28T17:33:58.553Z,3.60
2022-09-28T17:36:27.062Z,3.43
2022-09-28T17:38:55.350Z,4.10
2022-09-28T17:41:23.200Z,4.07
2022-09-28T17:43:51.637Z,4.13
2022-09-28T17:46:49.676Z,5.40
2022-09-28T17:49:18.798Z,6.27
2022-09-28T17:51:46.540Z,5.70
2022-09-28T17:54:16.926Z,4.37
2022-09-28T17:56:44.865Z,4.93
2022-09-28T17:59:19.227Z,4.17
2022-09-28T18:01:48.368Z,4.33
2022-09-28T18:04:39.843Z,5.13
2022-09-28T18:07:05.669Z,4.93
2022-09-28T18:09:33.407Z,3.70
2022-09-28T18:12:06.379Z,4.50
2022-09-28T18:14:35.895Z,3.93
2022-09-28T18:17:03.901Z,4.30
2022-09-28T18:19:32.503Z,4.30
2022-09-28T18:22:01.646Z,4.30
2022-09-28T18:24:29.933Z,4.33
2022-09-28T18:26:57.581Z,3.90
2022-09-28T18:29:25.256Z,4.43
2022-09-28T18:31:52.903Z,5.00
2022-09-28T18:34:20.657Z,4.93
2022-09-28T18:36:48.481Z,5.37
2022-09-28T18:39:16.135Z,5.20
2022-09-28T18:41:43.812Z,4.63
2022-09-28T18:44:11.535Z,7.00
2022-09-28T18:46:39.535Z,6.83
2022-09-28T18:49:07.563Z,8.87
2022-09-28T18:51:35.343Z,8.60
2022-09-28T18:54:07.228Z,8.43
2022-09-28T18:56:37.496Z,8.10
2022-09-28T18:59:14.953Z,7.90
2022-09-28T19:01:44.749Z,9.53
2022-09-28T19:04:15.989Z,10.40
2022-09-28T19:06:52.236Z,9.10
2022-09-28T19:09:24.707Z,7.80
2022-09-28T19:11:52.345Z,7.60
2022-09-28T19:14:20.476Z,8.33
2022-09-28T19:16:48.445Z,7.10
2022-09-28T19:19:20.725Z,8.10
2022-09-28T19:21:48.492Z,7.20
2022-09-28T19:24:19.338Z,7.23
2022-09-28T19:26:48.691Z,7.03
2022-09-28T19:29:18.720Z,6.47
2022-09-28T19:31:47.376Z,7.80
2022-09-28T19:34:15.500Z,7.50
2022-09-28T19:36:43.468Z,7.43
2022-09-28T19:39:15.717Z,8.77
2022-09-28T19:41:51.604Z,8.50
2022-09-28T19:44:27.944Z,8.17
2022-09-28T19:47:08.776Z,7.43
2022-09-28T19:49:41.097Z,8.53
2022-09-28T19:52:16.939Z,8.40
2022-09-28T19:54:59.294Z,7.40
2022-09-28T19:57:32.693Z,7.43
2022-09-28T20:00:03.432Z,8.10
2022-09-28T20:02:35.408Z,8.33
2022-09-28T20:05:03.553Z,8.93
2022-09-28T20:07:33.378Z,8.27
2022-09-28T20:10:01.089Z,8.00
2022-09-28T20:12:32.182Z,8.50
2022-09-28T20:15:00.057Z,9.20
2022-09-28T20:17:27.704Z,9.17
2022-09-28T20:19:55.443Z,8.90
2022-09-28T20:22:23.333Z,10.27
2022-09-28T20:24:50.893Z,9.77
2022-09-28T20:27:22.024Z,10.10
2022-09-28T20:29:52.066Z,9.60
2022-09-28T20:32:23.462Z,9.73
2022-09-28T20:34:54.452Z,10.57
2022-09-28T20:37:27.807Z,10.60
2022-09-28T20:40:01.754Z,10.10
2022-09-28T20:42:32.123Z,11.20
2022-09-28T20:45:00.048Z,10.33
2022-09-28T20:47:28.388Z,10.07
2022-09-28T20:49:59.403Z,10.50
2022-09-28T20:52:27.642Z,11.23
2022-09-28T20:55:05.365Z,12.13
2022-09-28T20:57:33.282Z,12.07
2022-09-28T21:00:02.137Z,12.40
2022-09-28T21:02:31.550Z,14.23
2022-09-28T21:04:59.708Z,12.43
2022-09-28T21:07:27.393Z,13.67
2022-09-28T21:09:55.065Z,12.20
2022-09-28T21:12:22.847Z,13.17
2022-09-28T21:14:54.131Z,12.83
2022-09-28T21:17:22.980Z,13.47
2022-09-28T21:19:51.072Z,13.00
2022-09-28T21:22:18.851Z,12.67
2022-09-28T21:24:46.422Z,13.50
2022-09-28T21:27:14.070Z,12.37
2022-09-28T21:29:41.833Z,12.53
2022-09-28T21:32:09.557Z,13.80
2022-09-28T21:34:37.230Z,14.37
2022-09-28T21:37:04.906Z,14.97
2022-09-28T21:39:32.655Z,16.07
2022-09-28T21:42:00.325Z,17.00
2022-09-28T21:44:28.227Z,15.00
2022-09-28T21:46:55.796Z,16.10
2022-09-28T21:49:23.366Z,15.80
2022-09-28T21:51:52.654Z,15.87
2022-09-28T21:54:20.487Z,15.87
2022-09-28T21:56:48.377Z,14.47
2022-09-28T21:59:15.886Z,15.20
2022-09-28T22:01:44.448Z,16.27
2022-09-28T22:04:15.288Z,14.23
2022-09-28T22:06:43.560Z,15.60
2022-09-28T22:09:11.273Z,14.33
2022-09-28T22:11:38.968Z,16.00
2022-09-28T22:14:07.081Z,14.47
2022-09-28T22:16:34.779Z,14.10
2022-09-28T22:19:02.566Z,13.57
2022-09-28T22:21:35.011Z,14.13
2022-09-28T22:24:08.349Z,14.80
2022-09-28T22:26:39.627Z,14.30
2022-09-28T22:29:10.597Z,15.00
2022-09-28T22:31:41.652Z,15.10
2022-09-28T22:34:10.104Z,14.00
2022-09-28T22:36:37.725Z,13.50
2022-09-28T22:39:08.177Z,15.03
2022-09-28T22:41:37.368Z,17.63
2022-09-28T22:44:07.155Z,14.47
2022-09-28T22:46:36.317Z,15.97
2022-09-28T22:49:05.356Z,15.00
2022-09-28T22:51:34.694Z,14.90
2022-09-28T22:54:04.391Z,15.73
2022-09-28T22:56:35.087Z,15.50
2022-09-28T22:59:04.133Z,16.10
2022-09-28T23:01:35.233Z,14.10
2022-09-28T23:04:04.847Z,16.27
2022-09-28T23:06:34.387Z,14.40
2022-09-28T23:09:04.168Z,14.87
2022-09-28T23:11:33.745Z,14.50
2022-09-28T23:14:03.715Z,14.97
2022-09-28T23:16:33.498Z,16.30
2022-09-28T23:19:02.615Z,15.97
2022-09-28T23:21:31.865Z,14.57
2022-09-28T23:24:03.973Z,15.70
2022-09-28T23:26:37.497Z,15.90
2022-09-28T23:29:06.814Z,16.20
2022-09-28T23:31:36.397Z,14.87
2022-09-28T23:34:08.146Z,16.30
2022-09-28T23:36:36.943Z,16.63
2022-09-28T23:39:06.193Z,15.20
2022-09-28T23:41:35.364Z,15.80
2022-09-28T23:44:05.774Z,17.47
2022-09-28T23:46:36.016Z,18.60
2022-09-28T23:49:05.939Z,17.60
2022-09-28T23:51:35.246Z,19.30
2022-09-28T23:54:07.131Z,19.40
2022-09-28T23:56:36.557Z,19.10
2022-09-28T23:59:07.083Z,18.50
